sensor_id;sensor_type;location;lat;lon;timestamp;temperature;humidity
42019;DHT22;27703;51.980;5.848;2023-08-21T00:01:18;21.90;99.10
42019;DHT22;27703;51.980;5.848;2023-08-21T00:03:44;21.80;99.20
42019;DHT22;27703;51.980;5.848;2023-08-21T00:06:10;21.80;99.30
42019;DHT22;27703;51.980;5.848;2023-08-21T00:08:35;21.80;99.30
42019;DHT22;27703;51.980;5.848;2023-08-21T00:11:01;21.70;99.30
42019;DHT22;27703;51.980;5.848;2023-08-21T00:13:26;21.70;99.50
42019;DHT22;27703;51.980;5.848;2023-08-21T00:15:52;21.70;99.60
42019;DHT22;27703;51.980;5.848;2023-08-21T00:18:17;21.70;99.50
42019;DHT22;27703;51.980;5.848;2023-08-21T00:20:43;21.70;99.50
42019;DHT22;27703;51.980;5.848;2023-08-21T00:23:09;21.60;99.50
42019;DHT22;27703;51.980;5.848;2023-08-21T00:25:35;21.60;99.70
42019;DHT22;27703;51.980;5.848;2023-08-21T00:28:00;21.60;99.80
42019;DHT22;27703;51.980;5.848;2023-08-21T00:30:26;21.70;99.80
42019;DHT22;27703;51.980;5.848;2023-08-21T00:32:52;21.70;99.80
42019;DHT22;27703;51.980;5.848;2023-08-21T00:35:17;21.60;99.80
42019;DHT22;27703;51.980;5.848;2023-08-21T00:37:46;21.70;99.80
42019;DHT22;27703;51.980;5.848;2023-08-21T00:40:12;21.60;99.90
42019;DHT22;27703;51.980;5.848;2023-08-21T00:42:38;21.70;99.90
42019;DHT22;27703;51.980;5.848;2023-08-21T00:45:04;21.70;99.90
42019;DHT22;27703;51.980;5.848;2023-08-21T00:47:34;21.70;99.90
42019;DHT22;27703;51.980;5.848;2023-08-21T00:49:59;21.70;99.90
42019;DHT22;27703;51.980;5.848;2023-08-21T00:52:25;21.70;99.90
42019;DHT22;27703;51.980;5.848;2023-08-21T00:54:51;21.70;99.90
42019;DHT22;27703;51.980;5.848;2023-08-21T00:57:17;21.80;99.90
42019;DHT22;27703;51.980;5.848;2023-08-21T00:59:43;21.80;99.90
42019;DHT22;27703;51.980;5.848;2023-08-21T01:02:09;21.80;99.90
42019;DHT22;27703;51.980;5.848;2023-08-21T01:04:35;21.80;99.90
42019;DHT22;27703;51.980;5.848;2023-08-21T01:07:00;21.70;99.90
42019;DHT22;27703;51.980;5.848;2023-08-21T01:12:06;21.70;99.90
42019;DHT22;27703;51.980;5.848;2023-08-21T01:14:46;21.60;99.90
42019;DHT22;27703;51.980;5.848;2023-08-21T01:17:16;21.60;99.90
42019;DHT22;27703;51.980;5.848;2023-08-21T01:19:46;21.50;99.90
42019;DHT22;27703;51.980;5.848;2023-08-21T01:22:13;21.50;99.90
42019;DHT22;27703;51.980;5.848;2023-08-21T01:24:39;21.40;99.90
42019;DHT22;27703;51.980;5.848;2023-08-21T01:27:04;21.40;99.90
42019;DHT22;27703;51.980;5.848;2023-08-21T01:29:30;21.30;99.90
42019;DHT22;27703;51.980;5.848;2023-08-21T01:32:41;21.30;99.90
42019;DHT22;27703;51.980;5.848;2023-08-21T01:35:09;21.30;99.90
42019;DHT22;27703;51.980;5.848;2023-08-21T01:37:36;21.20;99.90
42019;DHT22;27703;51.980;5.848;2023-08-21T01:40:02;21.20;99.90
42019;DHT22;27703;51.980;5.848;2023-08-21T01:42:27;21.20;99.90
42019;DHT22;27703;51.980;5.848;2023-08-21T01:44:53;21.30;99.90
42019;DHT22;27703;51.980;5.848;2023-08-21T01:47:19;21.20;99.90
42019;DHT22;27703;51.980;5.848;2023-08-21T01:49:44;21.20;99.90
42019;DHT22;27703;51.980;5.848;2023-08-21T01:52:10;21.10;99.90
42019;DHT22;27703;51.980;5.848;2023-08-21T01:54:36;21.10;99.90
42019;DHT22;27703;51.980;5.848;2023-08-21T01:57:01;21.10;99.90
42019;DHT22;27703;51.980;5.848;2023-08-21T01:59:27;21.10;99.90
42019;DHT22;27703;51.980;5.848;2023-08-21T02:01:52;21.10;99.90
42019;DHT22;27703;51.980;5.848;2023-08-21T02:04:19;21.10;99.90
42019;DHT22;27703;51.980;5.848;2023-08-21T02:06:44;21.10;99.90
42019;DHT22;27703;51.980;5.848;2023-08-21T02:09:10;21.10;99.90
42019;DHT22;27703;51.980;5.848;2023-08-21T02:11:36;21.10;99.90
42019;DHT22;27703;51.980;5.848;2023-08-21T02:14:01;21.10;99.90
42019;DHT22;27703;51.980;5.848;2023-08-21T02:16:27;21.20;99.90
42019;DHT22;27703;51.980;5.848;2023-08-21T02:18:53;21.10;99.90
42019;DHT22;27703;51.980;5.848;2023-08-21T02:21:18;21.00;99.90
42019;DHT22;27703;51.980;5.848;2023-08-21T02:23:44;21.10;99.90
42019;DHT22;27703;51.980;5.848;2023-08-21T02:26:09;21.10;99.90
42019;DHT22;27703;51.980;5.848;2023-08-21T02:28:35;21.10;99.90
42019;DHT22;27703;51.980;5.848;2023-08-21T02:31:00;21.10;99.90
42019;DHT22;27703;51.980;5.848;2023-08-21T02:33:26;21.20;99.90
42019;DHT22;27703;51.980;5.848;2023-08-21T02:35:51;21.20;99.90
42019;DHT22;27703;51.980;5.848;2023-08-21T02:38:17;21.20;99.90
42019;DHT22;27703;51.980;5.848;2023-08-21T02:40:42;21.20;99.90
42019;DHT22;27703;51.980;5.848;2023-08-21T02:43:08;21.20;99.90
42019;DHT22;27703;51.980;5.848;2023-08-21T02:45:34;21.20;99.90
42019;DHT22;27703;51.980;5.848;2023-08-21T02:47:59;21.20;99.90
42019;DHT22;27703;51.980;5.848;2023-08-21T02:50:25;21.20;99.90
42019;DHT22;27703;51.980;5.848;2023-08-21T02:52:50;21.20;99.90
42019;DHT22;27703;51.980;5.848;2023-08-21T02:55:16;21.20;99.90
42019;DHT22;27703;51.980;5.848;2023-08-21T02:57:41;21.20;99.90
42019;DHT22;27703;51.980;5.848;2023-08-21T03:00:07;21.20;99.90
42019;DHT22;27703;51.980;5.848;2023-08-21T03:02:34;21.10;99.90
42019;DHT22;27703;51.980;5.848;2023-08-21T03:05:00;21.10;99.90
42019;DHT22;27703;51.980;5.848;2023-08-21T03:07:25;21.10;99.90
42019;DHT22;27703;51.980;5.848;2023-08-21T03:09:51;21.10;99.90
42019;DHT22;27703;51.980;5.848;2023-08-21T03:12:17;21.00;99.90
42019;DHT22;27703;51.980;5.848;2023-08-21T03:14:42;20.90;99.90
42019;DHT22;27703;51.980;5.848;2023-08-21T03:17:08;20.90;99.90
42019;DHT22;27703;51.980;5.848;2023-08-21T03:19:33;20.90;99.90
42019;DHT22;27703;51.980;5.848;2023-08-21T03:21:59;20.90;99.90
42019;DHT22;27703;51.980;5.848;2023-08-21T03:24:24;20.90;99.90
42019;DHT22;27703;51.980;5.848;2023-08-21T03:26:50;20.90;99.90
42019;DHT22;27703;51.980;5.848;2023-08-21T03:29:16;21.00;99.90
42019;DHT22;27703;51.980;5.848;2023-08-21T03:31:42;21.00;99.90
42019;DHT22;27703;51.980;5.848;2023-08-21T03:34:07;21.10;99.90
42019;DHT22;27703;51.980;5.848;2023-08-21T03:36:33;21.10;99.90
42019;DHT22;27703;51.980;5.848;2023-08-21T03:39:00;21.10;99.90
42019;DHT22;27703;51.980;5.848;2023-08-21T03:41:26;21.10;99.90
42019;DHT22;27703;51.980;5.848;2023-08-21T03:43:52;21.10;99.90
42019;DHT22;27703;51.980;5.848;2023-08-21T03:46:18;21.10;99.90
42019;DHT22;27703;51.980;5.848;2023-08-21T03:48:43;21.10;99.90
42019;DHT22;27703;51.980;5.848;2023-08-21T03:51:09;21.10;99.90
42019;DHT22;27703;51.980;5.848;2023-08-21T03:53:34;21.10;99.90
42019;DHT22;27703;51.980;5.848;2023-08-21T03:56:00;21.00;99.90
42019;DHT22;27703;51.980;5.848;2023-08-21T03:58:26;21.00;99.90
42019;DHT22;27703;51.980;5.848;2023-08-21T04:00:52;21.00;99.90
42019;DHT22;27703;51.980;5.848;2023-08-21T04:03:18;20.90;99.90
42019;DHT22;27703;51.980;5.848;2023-08-21T04:05:44;20.90;99.90
42019;DHT22;27703;51.980;5.848;2023-08-21T04:08:09;20.90;99.90
42019;DHT22;27703;51.980;5.848;2023-08-21T04:10:35;20.80;99.90
42019;DHT22;27703;51.980;5.848;2023-08-21T04:13:00;20.80;99.90
42019;DHT22;27703;51.980;5.848;2023-08-21T04:15:26;20.70;99.90
42019;DHT22;27703;51.980;5.848;2023-08-21T04:17:52;20.70;99.90
42019;DHT22;27703;51.980;5.848;2023-08-21T04:20:19;20.60;99.90
42019;DHT22;27703;51.980;5.848;2023-08-21T04:22:45;20.60;99.90
42019;DHT22;27703;51.980;5.848;2023-08-21T04:25:11;20.60;99.90
42019;DHT22;27703;51.980;5.848;2023-08-21T04:27:37;20.60;99.90
42019;DHT22;27703;51.980;5.848;2023-08-21T04:30:03;20.60;99.90
42019;DHT22;27703;51.980;5.848;2023-08-21T04:32:30;20.60;99.90
42019;DHT22;27703;51.980;5.848;2023-08-21T04:34:56;20.60;99.90
42019;DHT22;27703;51.980;5.848;2023-08-21T04:37:22;20.60;99.90
42019;DHT22;27703;51.980;5.848;2023-08-21T04:39:54;20.50;99.90
42019;DHT22;27703;51.980;5.848;2023-08-21T04:42:20;20.50;99.90
42019;DHT22;27703;51.980;5.848;2023-08-21T04:44:46;20.50;99.90
42019;DHT22;27703;51.980;5.848;2023-08-21T04:47:38;20.50;99.90
42019;DHT22;27703;51.980;5.848;2023-08-21T04:50:04;20.50;99.90
42019;DHT22;27703;51.980;5.848;2023-08-21T04:52:29;20.50;99.90
42019;DHT22;27703;51.980;5.848;2023-08-21T04:54:55;20.50;99.90
42019;DHT22;27703;51.980;5.848;2023-08-21T04:57:21;20.60;99.90
42019;DHT22;27703;51.980;5.848;2023-08-21T04:59:47;20.60;99.90
42019;DHT22;27703;51.980;5.848;2023-08-21T05:02:13;20.60;99.90
42019;DHT22;27703;51.980;5.848;2023-08-21T05:04:39;20.60;99.90
42019;DHT22;27703;51.980;5.848;2023-08-21T05:07:04;20.70;99.90
42019;DHT22;27703;51.980;5.848;2023-08-21T05:09:31;20.70;99.90
42019;DHT22;27703;51.980;5.848;2023-08-21T05:11:56;20.70;99.90
42019;DHT22;27703;51.980;5.848;2023-08-21T05:14:22;20.60;99.90
42019;DHT22;27703;51.980;5.848;2023-08-21T05:16:51;20.70;99.90
42019;DHT22;27703;51.980;5.848;2023-08-21T05:19:17;20.70;99.90
42019;DHT22;27703;51.980;5.848;2023-08-21T05:21:43;20.70;99.90
42019;DHT22;27703;51.980;5.848;2023-08-21T05:24:09;20.70;99.90
42019;DHT22;27703;51.980;5.848;2023-08-21T05:26:38;20.70;99.90
42019;DHT22;27703;51.980;5.848;2023-08-21T05:29:03;20.70;99.90
42019;DHT22;27703;51.980;5.848;2023-08-21T05:31:29;20.70;99.90
42019;DHT22;27703;51.980;5.848;2023-08-21T05:33:54;20.70;99.90
42019;DHT22;27703;51.980;5.848;2023-08-21T05:36:20;20.70;99.90
42019;DHT22;27703;51.980;5.848;2023-08-21T05:38:46;20.70;99.90
42019;DHT22;27703;51.980;5.848;2023-08-21T05:41:13;20.60;99.90
42019;DHT22;27703;51.980;5.848;2023-08-21T05:43:39;20.60;99.90
42019;DHT22;27703;51.980;5.848;2023-08-21T05:46:07;20.60;99.90
42019;DHT22;27703;51.980;5.848;2023-08-21T05:48:33;20.60;99.90
42019;DHT22;27703;51.980;5.848;2023-08-21T05:50:59;20.60;99.90
42019;DHT22;27703;51.980;5.848;2023-08-21T05:53:25;20.70;99.90
42019;DHT22;27703;51.980;5.848;2023-08-21T05:55:50;20.70;99.90
42019;DHT22;27703;51.980;5.848;2023-08-21T05:58:16;20.70;99.90
42019;DHT22;27703;51.980;5.848;2023-08-21T06:00:41;20.70;99.90
42019;DHT22;27703;51.980;5.848;2023-08-21T06:03:07;20.70;99.90
42019;DHT22;27703;51.980;5.848;2023-08-21T06:05:33;20.80;99.90
42019;DHT22;27703;51.980;5.848;2023-08-21T06:07:59;20.80;99.90
42019;DHT22;27703;51.980;5.848;2023-08-21T06:10:24;20.90;99.90
42019;DHT22;27703;51.980;5.848;2023-08-21T06:12:50;20.90;99.90
42019;DHT22;27703;51.980;5.848;2023-08-21T06:15:16;21.00;99.90
42019;DHT22;27703;51.980;5.848;2023-08-21T06:17:42;21.00;99.90
42019;DHT22;27703;51.980;5.848;2023-08-21T06:20:08;21.10;99.90
42019;DHT22;27703;51.980;5.848;2023-08-21T06:22:37;21.10;99.90
42019;DHT22;27703;51.980;5.848;2023-08-21T06:25:02;21.10;99.90
42019;DHT22;27703;51.980;5.848;2023-08-21T06:27:28;21.00;99.90
42019;DHT22;27703;51.980;5.848;2023-08-21T06:29:54;21.10;99.90
42019;DHT22;27703;51.980;5.848;2023-08-21T06:32:19;21.00;99.90
42019;DHT22;27703;51.980;5.848;2023-08-21T06:34:45;21.10;99.90
42019;DHT22;27703;51.980;5.848;2023-08-21T06:37:10;21.10;99.90
42019;DHT22;27703;51.980;5.848;2023-08-21T06:39:38;21.20;99.90
42019;DHT22;27703;51.980;5.848;2023-08-21T06:42:03;21.10;99.90
42019;DHT22;27703;51.980;5.848;2023-08-21T06:44:29;21.10;99.90
42019;DHT22;27703;51.980;5.848;2023-08-21T06:46:55;21.20;99.90
42019;DHT22;27703;51.980;5.848;2023-08-21T06:49:20;21.20;99.90
42019;DHT22;27703;51.980;5.848;2023-08-21T06:51:46;21.20;99.90
42019;DHT22;27703;51.980;5.848;2023-08-21T06:54:11;21.20;99.90
42019;DHT22;27703;51.980;5.848;2023-08-21T06:56:37;21.30;99.90
42019;DHT22;27703;51.980;5.848;2023-08-21T06:59:02;21.40;99.90
42019;DHT22;27703;51.980;5.848;2023-08-21T07:01:28;21.40;99.90
42019;DHT22;27703;51.980;5.848;2023-08-21T07:03:54;21.60;99.90
42019;DHT22;27703;51.980;5.848;2023-08-21T07:06:19;21.60;99.90
42019;DHT22;27703;51.980;5.848;2023-08-21T07:08:45;21.70;99.90
42019;DHT22;27703;51.980;5.848;2023-08-21T07:11:11;21.70;99.90
42019;DHT22;27703;51.980;5.848;2023-08-21T07:13:37;21.90;99.90
42019;DHT22;27703;51.980;5.848;2023-08-21T07:16:04;21.90;99.90
42019;DHT22;27703;51.980;5.848;2023-08-21T07:18:34;22.00;99.90
42019;DHT22;27703;51.980;5.848;2023-08-21T07:21:00;22.10;99.90
42019;DHT22;27703;51.980;5.848;2023-08-21T07:23:26;22.20;99.90
42019;DHT22;27703;51.980;5.848;2023-08-21T07:25:52;22.20;99.90
42019;DHT22;27703;51.980;5.848;2023-08-21T07:28:17;22.30;99.90
42019;DHT22;27703;51.980;5.848;2023-08-21T07:30:43;22.40;99.90
42019;DHT22;27703;51.980;5.848;2023-08-21T07:33:08;22.60;99.90
42019;DHT22;27703;51.980;5.848;2023-08-21T07:35:34;22.60;99.90
42019;DHT22;27703;51.980;5.848;2023-08-21T07:38:01;22.70;99.90
42019;DHT22;27703;51.980;5.848;2023-08-21T07:40:26;22.70;99.90
42019;DHT22;27703;51.980;5.848;2023-08-21T07:42:52;22.60;99.90
42019;DHT22;27703;51.980;5.848;2023-08-21T07:45:18;22.50;99.90
42019;DHT22;27703;51.980;5.848;2023-08-21T07:47:43;22.40;99.90
42019;DHT22;27703;51.980;5.848;2023-08-21T07:50:09;22.40;99.90
42019;DHT22;27703;51.980;5.848;2023-08-21T07:52:35;22.40;99.90
42019;DHT22;27703;51.980;5.848;2023-08-21T07:55:01;22.40;99.90
42019;DHT22;27703;51.980;5.848;2023-08-21T07:57:30;22.40;99.90
42019;DHT22;27703;51.980;5.848;2023-08-21T07:59:56;22.40;99.90
42019;DHT22;27703;51.980;5.848;2023-08-21T08:02:22;22.40;99.90
42019;DHT22;27703;51.980;5.848;2023-08-21T08:04:48;22.40;99.90
42019;DHT22;27703;51.980;5.848;2023-08-21T08:07:13;22.50;99.90
42019;DHT22;27703;51.980;5.848;2023-08-21T08:09:39;22.50;99.90
42019;DHT22;27703;51.980;5.848;2023-08-21T08:12:05;22.50;99.90
42019;DHT22;27703;51.980;5.848;2023-08-21T08:14:31;22.50;99.90
42019;DHT22;27703;51.980;5.848;2023-08-21T08:16:56;22.50;99.90
42019;DHT22;27703;51.980;5.848;2023-08-21T08:19:22;22.60;99.90
42019;DHT22;27703;51.980;5.848;2023-08-21T08:21:47;22.60;99.90
42019;DHT22;27703;51.980;5.848;2023-08-21T08:24:13;22.70;99.90
42019;DHT22;27703;51.980;5.848;2023-08-21T08:26:38;22.60;99.90
42019;DHT22;27703;51.980;5.848;2023-08-21T08:29:04;22.60;99.90
42019;DHT22;27703;51.980;5.848;2023-08-21T08:31:33;22.80;99.90
42019;DHT22;27703;51.980;5.848;2023-08-21T08:33:58;22.90;99.90
42019;DHT22;27703;51.980;5.848;2023-08-21T08:36:24;22.90;99.90
42019;DHT22;27703;51.980;5.848;2023-08-21T08:38:49;23.10;99.90
42019;DHT22;27703;51.980;5.848;2023-08-21T08:41:43;23.30;99.90
42019;DHT22;27703;51.980;5.848;2023-08-21T08:44:10;23.30;99.90
42019;DHT22;27703;51.980;5.848;2023-08-21T08:46:38;23.30;99.90
42019;DHT22;27703;51.980;5.848;2023-08-21T08:49:04;23.30;99.90
42019;DHT22;27703;51.980;5.848;2023-08-21T08:51:30;23.30;99.90
42019;DHT22;27703;51.980;5.848;2023-08-21T08:53:58;23.40;99.80
42019;DHT22;27703;51.980;5.848;2023-08-21T08:56:24;23.50;99.60
42019;DHT22;27703;51.980;5.848;2023-08-21T08:58:50;23.60;99.40
42019;DHT22;27703;51.980;5.848;2023-08-21T09:01:16;23.70;99.20
42019;DHT22;27703;51.980;5.848;2023-08-21T09:03:41;23.60;99.30
42019;DHT22;27703;51.980;5.848;2023-08-21T09:06:07;23.70;99.30
42019;DHT22;27703;51.980;5.848;2023-08-21T09:08:33;23.80;99.20
42019;DHT22;27703;51.980;5.848;2023-08-21T09:11:01;23.90;99.20
42019;DHT22;27703;51.980;5.848;2023-08-21T09:13:28;23.90;99.00
42019;DHT22;27703;51.980;5.848;2023-08-21T09:15:56;23.90;99.00
42019;DHT22;27703;51.980;5.848;2023-08-21T09:18:21;24.00;99.00
42019;DHT22;27703;51.980;5.848;2023-08-21T09:20:47;24.10;98.90
42019;DHT22;27703;51.980;5.848;2023-08-21T09:23:17;24.10;98.80
42019;DHT22;27703;51.980;5.848;2023-08-21T09:25:45;24.20;98.80
42019;DHT22;27703;51.980;5.848;2023-08-21T09:28:17;24.20;98.80
42019;DHT22;27703;51.980;5.848;2023-08-21T09:30:53;24.10;98.70
42019;DHT22;27703;51.980;5.848;2023-08-21T09:33:20;24.10;98.70
42019;DHT22;27703;51.980;5.848;2023-08-21T09:35:47;24.20;98.70
42019;DHT22;27703;51.980;5.848;2023-08-21T09:38:13;24.20;98.60
42019;DHT22;27703;51.980;5.848;2023-08-21T09:40:44;24.30;98.40
42019;DHT22;27703;51.980;5.848;2023-08-21T09:43:15;24.50;98.30
42019;DHT22;27703;51.980;5.848;2023-08-21T09:45:40;24.50;97.90
42019;DHT22;27703;51.980;5.848;2023-08-21T09:48:06;24.70;97.80
42019;DHT22;27703;51.980;5.848;2023-08-21T09:50:32;24.70;97.70
42019;DHT22;27703;51.980;5.848;2023-08-21T09:52:58;24.80;97.70
42019;DHT22;27703;51.980;5.848;2023-08-21T09:55:24;24.80;96.90
42019;DHT22;27703;51.980;5.848;2023-08-21T09:57:52;24.90;97.00
42019;DHT22;27703;51.980;5.848;2023-08-21T10:00:33;24.90;97.00
42019;DHT22;27703;51.980;5.848;2023-08-21T10:03:20;25.00;96.90
42019;DHT22;27703;51.980;5.848;2023-08-21T10:05:47;25.10;96.80
42019;DHT22;27703;51.980;5.848;2023-08-21T10:08:16;25.10;96.60
42019;DHT22;27703;51.980;5.848;2023-08-21T10:10:43;25.20;96.40
42019;DHT22;27703;51.980;5.848;2023-08-21T10:13:09;25.20;96.20
42019;DHT22;27703;51.980;5.848;2023-08-21T10:15:36;25.30;96.30
42019;DHT22;27703;51.980;5.848;2023-08-21T10:18:23;25.30;96.20
42019;DHT22;27703;51.980;5.848;2023-08-21T10:20:49;25.50;96.10
42019;DHT22;27703;51.980;5.848;2023-08-21T10:23:28;25.50;95.20
42019;DHT22;27703;51.980;5.848;2023-08-21T10:25:58;25.60;95.00
42019;DHT22;27703;51.980;5.848;2023-08-21T10:28:24;25.60;94.80
42019;DHT22;27703;51.980;5.848;2023-08-21T10:30:50;25.60;94.10
42019;DHT22;27703;51.980;5.848;2023-08-21T10:33:16;25.60;94.00
42019;DHT22;27703;51.980;5.848;2023-08-21T10:35:44;25.70;94.30
42019;DHT22;27703;51.980;5.848;2023-08-21T10:38:16;25.80;94.40
42019;DHT22;27703;51.980;5.848;2023-08-21T10:41:07;25.90;94.30
42019;DHT22;27703;51.980;5.848;2023-08-21T10:43:41;26.00;94.30
42019;DHT22;27703;51.980;5.848;2023-08-21T10:46:09;26.10;94.40
42019;DHT22;27703;51.980;5.848;2023-08-21T10:48:35;26.20;94.20
42019;DHT22;27703;51.980;5.848;2023-08-21T10:51:03;26.20;94.10
42019;DHT22;27703;51.980;5.848;2023-08-21T10:53:30;26.20;93.70
42019;DHT22;27703;51.980;5.848;2023-08-21T10:55:56;26.20;93.40
42019;DHT22;27703;51.980;5.848;2023-08-21T10:58:22;26.30;93.40
42019;DHT22;27703;51.980;5.848;2023-08-21T11:00:56;26.30;93.40
42019;DHT22;27703;51.980;5.848;2023-08-21T11:03:23;26.40;93.20
42019;DHT22;27703;51.980;5.848;2023-08-21T11:06:08;26.20;92.70
42019;DHT22;27703;51.980;5.848;2023-08-21T11:08:34;26.20;92.40
42019;DHT22;27703;51.980;5.848;2023-08-21T11:11:03;26.20;92.70
42019;DHT22;27703;51.980;5.848;2023-08-21T11:13:29;26.30;92.90
42019;DHT22;27703;51.980;5.848;2023-08-21T11:16:02;26.50;92.90
42019;DHT22;27703;51.980;5.848;2023-08-21T11:18:35;26.60;92.70
42019;DHT22;27703;51.980;5.848;2023-08-21T11:21:09;26.70;92.80
42019;DHT22;27703;51.980;5.848;2023-08-21T11:23:38;26.70;92.60
42019;DHT22;27703;51.980;5.848;2023-08-21T11:26:04;26.80;92.30
42019;DHT22;27703;51.980;5.848;2023-08-21T11:28:30;26.70;91.80
42019;DHT22;27703;51.980;5.848;2023-08-21T11:30:57;26.70;91.90
42019;DHT22;27703;51.980;5.848;2023-08-21T11:33:23;26.70;91.50
42019;DHT22;27703;51.980;5.848;2023-08-21T11:35:49;26.70;91.70
42019;DHT22;27703;51.980;5.848;2023-08-21T11:38:19;26.80;91.60
42019;DHT22;27703;51.980;5.848;2023-08-21T11:40:59;26.80;91.40
42019;DHT22;27703;51.980;5.848;2023-08-21T11:43:35;26.80;91.60
42019;DHT22;27703;51.980;5.848;2023-08-21T11:46:05;26.90;91.40
42019;DHT22;27703;51.980;5.848;2023-08-21T11:48:33;27.00;91.10
42019;DHT22;27703;51.980;5.848;2023-08-21T11:50:58;26.90;90.80
42019;DHT22;27703;51.980;5.848;2023-08-21T11:53:50;26.90;90.70
42019;DHT22;27703;51.980;5.848;2023-08-21T11:56:17;27.00;90.70
42019;DHT22;27703;51.980;5.848;2023-08-21T11:58:45;27.10;90.60
42019;DHT22;27703;51.980;5.848;2023-08-21T12:01:16;27.10;90.70
42019;DHT22;27703;51.980;5.848;2023-08-21T12:03:43;27.30;90.60
42019;DHT22;27703;51.980;5.848;2023-08-21T12:06:10;27.40;90.60
42019;DHT22;27703;51.980;5.848;2023-08-21T12:08:37;27.50;90.60
42019;DHT22;27703;51.980;5.848;2023-08-21T12:11:03;27.50;90.20
42019;DHT22;27703;51.980;5.848;2023-08-21T12:13:29;27.60;89.50
42019;DHT22;27703;51.980;5.848;2023-08-21T12:15:55;27.60;89.80
42019;DHT22;27703;51.980;5.848;2023-08-21T12:18:21;27.60;89.90
42019;DHT22;27703;51.980;5.848;2023-08-21T12:20:46;27.70;89.90
42019;DHT22;27703;51.980;5.848;2023-08-21T12:23:12;27.60;88.70
42019;DHT22;27703;51.980;5.848;2023-08-21T12:25:37;27.60;88.20
42019;DHT22;27703;51.980;5.848;2023-08-21T12:28:04;27.60;88.20
42019;DHT22;27703;51.980;5.848;2023-08-21T12:30:30;27.70;87.70
42019;DHT22;27703;51.980;5.848;2023-08-21T12:32:55;27.70;87.60
42019;DHT22;27703;51.980;5.848;2023-08-21T12:35:21;27.70;87.00
42019;DHT22;27703;51.980;5.848;2023-08-21T12:37:46;27.70;86.40
42019;DHT22;27703;51.980;5.848;2023-08-21T12:40:12;27.60;86.60
42019;DHT22;27703;51.980;5.848;2023-08-21T12:42:37;27.60;87.10
42019;DHT22;27703;51.980;5.848;2023-08-21T12:45:03;27.50;86.80
42019;DHT22;27703;51.980;5.848;2023-08-21T12:47:29;27.50;86.40
42019;DHT22;27703;51.980;5.848;2023-08-21T12:49:54;27.50;86.70
42019;DHT22;27703;51.980;5.848;2023-08-21T12:52:20;27.50;87.20
42019;DHT22;27703;51.980;5.848;2023-08-21T12:54:46;27.60;87.20
42019;DHT22;27703;51.980;5.848;2023-08-21T12:57:11;27.60;86.90
42019;DHT22;27703;51.980;5.848;2023-08-21T12:59:37;27.60;87.00
42019;DHT22;27703;51.980;5.848;2023-08-21T13:02:03;27.60;87.40
42019;DHT22;27703;51.980;5.848;2023-08-21T13:04:29;27.70;87.40
42019;DHT22;27703;51.980;5.848;2023-08-21T13:06:55;27.80;87.10
42019;DHT22;27703;51.980;5.848;2023-08-21T13:09:20;27.90;87.10
42019;DHT22;27703;51.980;5.848;2023-08-21T13:11:46;27.90;87.10
42019;DHT22;27703;51.980;5.848;2023-08-21T13:14:12;27.90;86.50
42019;DHT22;27703;51.980;5.848;2023-08-21T13:16:37;27.90;86.10
42019;DHT22;27703;51.980;5.848;2023-08-21T13:19:03;27.90;86.70
42019;DHT22;27703;51.980;5.848;2023-08-21T13:21:28;28.00;86.30
42019;DHT22;27703;51.980;5.848;2023-08-21T13:23:54;28.00;86.50
42019;DHT22;27703;51.980;5.848;2023-08-21T13:26:20;28.00;86.30
42019;DHT22;27703;51.980;5.848;2023-08-21T13:28:45;28.10;86.20
42019;DHT22;27703;51.980;5.848;2023-08-21T13:31:11;28.20;85.80
42019;DHT22;27703;51.980;5.848;2023-08-21T13:33:50;28.30;85.00
42019;DHT22;27703;51.980;5.848;2023-08-21T13:36:16;28.30;85.10
42019;DHT22;27703;51.980;5.848;2023-08-21T13:38:43;28.30;84.70
42019;DHT22;27703;51.980;5.848;2023-08-21T13:41:10;28.30;84.00
42019;DHT22;27703;51.980;5.848;2023-08-21T13:43:35;28.30;83.60
42019;DHT22;27703;51.980;5.848;2023-08-21T13:46:01;28.30;82.80
42019;DHT22;27703;51.980;5.848;2023-08-21T13:48:29;28.30;82.90
42019;DHT22;27703;51.980;5.848;2023-08-21T13:50:55;28.20;82.50
42019;DHT22;27703;51.980;5.848;2023-08-21T13:53:21;28.30;82.00
42019;DHT22;27703;51.980;5.848;2023-08-21T13:55:46;28.40;82.20
42019;DHT22;27703;51.980;5.848;2023-08-21T13:58:12;28.50;81.90
42019;DHT22;27703;51.980;5.848;2023-08-21T14:00:37;28.50;80.40
42019;DHT22;27703;51.980;5.848;2023-08-21T14:03:03;28.40;80.40
42019;DHT22;27703;51.980;5.848;2023-08-21T14:05:29;28.50;80.60
42019;DHT22;27703;51.980;5.848;2023-08-21T14:07:57;28.60;80.10
42019;DHT22;27703;51.980;5.848;2023-08-21T14:10:22;28.60;79.60
42019;DHT22;27703;51.980;5.848;2023-08-21T14:12:48;28.40;79.60
42019;DHT22;27703;51.980;5.848;2023-08-21T14:15:14;28.50;79.20
42019;DHT22;27703;51.980;5.848;2023-08-21T14:17:40;28.40;79.20
42019;DHT22;27703;51.980;5.848;2023-08-21T14:20:06;28.50;78.70
42019;DHT22;27703;51.980;5.848;2023-08-21T14:22:33;28.50;78.50
42019;DHT22;27703;51.980;5.848;2023-08-21T14:24:58;28.50;78.20
42019;DHT22;27703;51.980;5.848;2023-08-21T14:27:24;28.60;77.90
42019;DHT22;27703;51.980;5.848;2023-08-21T14:29:50;28.50;78.20
42019;DHT22;27703;51.980;5.848;2023-08-21T14:32:15;28.60;78.80
42019;DHT22;27703;51.980;5.848;2023-08-21T14:34:41;28.60;78.90
42019;DHT22;27703;51.980;5.848;2023-08-21T14:37:07;28.70;79.00
42019;DHT22;27703;51.980;5.848;2023-08-21T14:39:32;28.80;78.40
42019;DHT22;27703;51.980;5.848;2023-08-21T14:41:59;28.80;78.10
42019;DHT22;27703;51.980;5.848;2023-08-21T14:44:24;28.70;77.70
42019;DHT22;27703;51.980;5.848;2023-08-21T14:46:54;28.60;77.90
42019;DHT22;27703;51.980;5.848;2023-08-21T14:49:20;28.50;77.60
42019;DHT22;27703;51.980;5.848;2023-08-21T14:51:45;28.50;77.70
42019;DHT22;27703;51.980;5.848;2023-08-21T14:54:11;28.50;77.00
42019;DHT22;27703;51.980;5.848;2023-08-21T14:56:37;28.50;77.10
42019;DHT22;27703;51.980;5.848;2023-08-21T14:59:02;28.40;76.60
42019;DHT22;27703;51.980;5.848;2023-08-21T15:01:29;28.50;77.10
42019;DHT22;27703;51.980;5.848;2023-08-21T15:03:55;28.60;76.50
42019;DHT22;27703;51.980;5.848;2023-08-21T15:06:20;28.60;76.20
42019;DHT22;27703;51.980;5.848;2023-08-21T15:08:46;28.50;76.20
42019;DHT22;27703;51.980;5.848;2023-08-21T15:11:12;28.30;76.20
42019;DHT22;27703;51.980;5.848;2023-08-21T15:13:39;28.40;76.80
42019;DHT22;27703;51.980;5.848;2023-08-21T15:16:04;28.50;76.90
42019;DHT22;27703;51.980;5.848;2023-08-21T15:18:30;28.70;76.70
42019;DHT22;27703;51.980;5.848;2023-08-21T15:20:56;28.70;76.90
42019;DHT22;27703;51.980;5.848;2023-08-21T15:23:21;28.70;77.20
42019;DHT22;27703;51.980;5.848;2023-08-21T15:25:47;28.70;77.30
42019;DHT22;27703;51.980;5.848;2023-08-21T15:28:13;28.80;77.10
42019;DHT22;27703;51.980;5.848;2023-08-21T15:30:38;28.90;76.00